< < Back
Terminal Aerodrome Forecast


Current Version              Previous Versions:   1  2  3  4  5  6  7  8  9  

Terminal Aerodrome Forecast

515
FTUS42 KJAX 091120
TAFJAX
TAF
KJAX 091120Z 0912/1012 26010KT P6SM FEW100
     FM091400 26022G32KT P6SM SCT250
     FM092300 27012G20KT P6SM SKC=

Latest METAR

497
SAUS80 KWBC 092000
MTRJAX
METAR KJAX 091956Z 27020G32KT 10SM FEW040 13/M07 A2986 RMK AO2 PK WND
29032/1952 SLP111 T01281072


USA.gov is the U.S. government's official web portal to all federal, state and local government web resources and services.